Cold Spring, MA

4:04 AM EST on December 04, 2016 (GMT -0500)
Sabin Street (South) | | Change Station

Elev 656 ft 42.26 °N, 72.36 °W | Updated 38 minutes ago

Overcast
Overcast
30.9 °F
Feels Like 30.9 °F
N
1.3
Wind Variable Wind from NNW
Gusts 3.4 mph

Today
High -- | Low -- °F
--% Chance of Precip.
Yesterday
High -- | Low -- °F
Precip. -- in
Pressure 30.17 in
Visibility 10.0 miles
Clouds Overcast 4000 ft
Dew Point 24.7 °F
Humidity 77%
Rainfall Not available.
Snow Depth Not available.
7:02 AM 4:17 PM
Waxing Crescent, 21% visible
METAR KCEF 040858Z AUTO 31013KT 10SM OVC040 02/M08 A3014 RMK AO2 SLP214 T00151080 51012 $
Pressure 30.17 in
Visibility 10.0 miles
Clouds Overcast 4000 ft
Dew Point 24.7 °F
Humidity 77%
Rainfall Not available.
Snow Depth Not available.
7:02 AM 4:17 PM
Waxing Crescent, 21% visible
METAR KCEF 040858Z AUTO 31013KT 10SM OVC040 02/M08 A3014 RMK AO2 SLP214 T00151080 51012 $

10-Day Weather Forecast

Almanac

Astronomy

Dec. 04, 2016 Rise Set
Actual Time
Civil Twilight
Nautical Twilight
Astronomical Twilight
Moon
Length of Visible Light
Length of Day
Tomorrow will be .
, % of the Moon is Illuminated

Today's Extremes

State Highs State Lows

Community

WunderPhotos

Upload Photos

1,955,587 photos uploaded!

WunderBlog® & News

Nearby

Air Quality

  Air Quality AQ Index Pollutant
Not available.

Snow Depth

Station Depth Elevation

Earthquake Activity

City Distance Mag. Time & Date
Minimum magnitude displayed is 2.5.

Coastal Water Temperatures

Place Temperature

Stations

Nearby Weather Stations

Station Location Temp. Windchill Dew Point Humidity Wind Precip. Elev Updated Type
                   

Watches & Warnings

There are currently no watches in effect.